sensor_id;sensor_type;location;lat;lon;timestamp;pressure;altitude;pressure_sealevel;temperature;humidity
71004;BME280;59025;42.050;-8.660;2022-08-11T00:01:08;100572.66;;;21.57;100.00
71004;BME280;59025;42.050;-8.660;2022-08-11T00:03:42;100563.97;;;21.62;100.00
71004;BME280;59025;42.050;-8.660;2022-08-11T00:06:10;100573.19;;;21.54;100.00
71004;BME280;59025;42.050;-8.660;2022-08-11T00:08:40;100576.34;;;21.51;100.00
71004;BME280;59025;42.050;-8.660;2022-08-11T00:11:09;100572.19;;;21.45;100.00
71004;BME280;59025;42.050;-8.660;2022-08-11T00:13:38;100563.53;;;21.45;100.00
71004;BME280;59025;42.050;-8.660;2022-08-11T00:16:12;100565.91;;;21.41;100.00
71004;BME280;59025;42.050;-8.660;2022-08-11T00:18:43;100563.84;;;21.38;100.00
71004;BME280;59025;42.050;-8.660;2022-08-11T00:21:12;100553.91;;;21.35;100.00
71004;BME280;59025;42.050;-8.660;2022-08-11T00:23:43;100565.69;;;21.33;100.00
71004;BME280;59025;42.050;-8.660;2022-08-11T00:26:11;100569.63;;;21.30;100.00
71004;BME280;59025;42.050;-8.660;2022-08-11T00:28:40;100571.78;;;21.23;100.00
71004;BME280;59025;42.050;-8.660;2022-08-11T00:31:10;100584.38;;;21.16;100.00
71004;BME280;59025;42.050;-8.660;2022-08-11T00:33:48;100588.81;;;21.16;100.00
71004;BME280;59025;42.050;-8.660;2022-08-11T00:36:18;100593.28;;;21.05;100.00
71004;BME280;59025;42.050;-8.660;2022-08-11T00:38:50;100584.91;;;21.03;100.00
71004;BME280;59025;42.050;-8.660;2022-08-11T00:41:35;100582.59;;;20.92;100.00
71004;BME280;59025;42.050;-8.660;2022-08-11T00:44:30;100579.47;;;20.85;100.00
71004;BME280;59025;42.050;-8.660;2022-08-11T00:47:14;100579.22;;;20.81;100.00
71004;BME280;59025;42.050;-8.660;2022-08-11T00:49:53;100572.16;;;20.77;100.00
71004;BME280;59025;42.050;-8.660;2022-08-11T00:52:35;100569.28;;;20.73;100.00
71004;BME280;59025;42.050;-8.660;2022-08-11T00:55:41;100566.41;;;20.70;100.00
71004;BME280;59025;42.050;-8.660;2022-08-11T01:01:37;100564.34;;;20.57;100.00
71004;BME280;59025;42.050;-8.660;2022-08-11T01:04:40;100572.47;;;20.45;100.00
71004;BME280;59025;42.050;-8.660;2022-08-11T06:15:45;100661.72;;;19.21;100.00
71004;BME280;59025;42.050;-8.660;2022-08-11T06:18:18;100660.44;;;19.28;100.00
71004;BME280;59025;42.050;-8.660;2022-08-11T06:20:54;100657.34;;;19.31;100.00
71004;BME280;59025;42.050;-8.660;2022-08-11T06:23:29;100662.31;;;19.38;100.00
71004;BME280;59025;42.050;-8.660;2022-08-11T06:26:00;100657.38;;;19.41;100.00
71004;BME280;59025;42.050;-8.660;2022-08-11T06:28:30;100647.72;;;19.42;100.00
71004;BME280;59025;42.050;-8.660;2022-08-11T06:31:01;100655.59;;;19.52;100.00
71004;BME280;59025;42.050;-8.660;2022-08-11T07:04:31;100551.31;;;22.17;100.00
71004;BME280;59025;42.050;-8.660;2022-08-11T07:10:46;100574.31;;;21.92;100.00
71004;BME280;59025;42.050;-8.660;2022-08-11T07:13:35;100581.81;;;21.60;100.00
71004;BME280;59025;42.050;-8.660;2022-08-11T07:16:25;100588.06;;;21.64;100.00
71004;BME280;59025;42.050;-8.660;2022-08-11T07:18:55;100586.75;;;21.71;100.00
71004;BME280;59025;42.050;-8.660;2022-08-11T07:21:45;100597.00;;;21.63;100.00
71004;BME280;59025;42.050;-8.660;2022-08-11T07:24:35;100591.16;;;21.76;100.00
71004;BME280;59025;42.050;-8.660;2022-08-11T07:27:23;100595.34;;;21.77;100.00
71004;BME280;59025;42.050;-8.660;2022-08-11T07:30:10;100589.53;;;21.85;100.00
71004;BME280;59025;42.050;-8.660;2022-08-11T07:32:46;100596.69;;;21.69;100.00
71004;BME280;59025;42.050;-8.660;2022-08-11T07:35:17;100607.47;;;21.63;100.00
71004;BME280;59025;42.050;-8.660;2022-08-11T07:37:52;100612.97;;;21.61;100.00
71004;BME280;59025;42.050;-8.660;2022-08-11T07:40:23;100630.03;;;21.49;100.00
71004;BME280;59025;42.050;-8.660;2022-08-11T07:42:51;100615.72;;;21.85;100.00
71004;BME280;59025;42.050;-8.660;2022-08-11T07:45:20;100616.09;;;22.07;100.00
71004;BME280;59025;42.050;-8.660;2022-08-11T07:48:06;100602.59;;;22.28;100.00
71004;BME280;59025;42.050;-8.660;2022-08-11T07:50:53;100619.13;;;22.24;100.00
71004;BME280;59025;42.050;-8.660;2022-08-11T07:53:39;100605.16;;;22.67;100.00
71004;BME280;59025;42.050;-8.660;2022-08-11T07:56:07;100590.97;;;22.96;100.00
71004;BME280;59025;42.050;-8.660;2022-08-11T07:58:35;100594.91;;;23.17;100.00
71004;BME280;59025;42.050;-8.660;2022-08-11T08:01:22;100584.13;;;23.98;100.00
71004;BME280;59025;42.050;-8.660;2022-08-11T08:04:09;100564.97;;;24.88;100.00
71004;BME280;59025;42.050;-8.660;2022-08-11T08:06:55;100533.13;;;25.96;100.00
71004;BME280;59025;42.050;-8.660;2022-08-11T08:09:44;100539.88;;;25.67;100.00
71004;BME280;59025;42.050;-8.660;2022-08-11T08:12:30;100529.50;;;26.45;100.00
71004;BME280;59025;42.050;-8.660;2022-08-11T08:15:16;100519.22;;;27.47;100.00
71004;BME280;59025;42.050;-8.660;2022-08-11T08:18:03;100510.06;;;28.41;100.00
71004;BME280;59025;42.050;-8.660;2022-08-11T08:20:36;100499.19;;;29.01;100.00
71004;BME280;59025;42.050;-8.660;2022-08-11T08:23:04;100497.09;;;29.47;100.00
71004;BME280;59025;42.050;-8.660;2022-08-11T08:25:37;100485.13;;;29.94;100.00
71004;BME280;59025;42.050;-8.660;2022-08-11T08:28:09;100487.72;;;30.27;100.00
71004;BME280;59025;42.050;-8.660;2022-08-11T08:30:41;100480.13;;;30.73;100.00
71004;BME280;59025;42.050;-8.660;2022-08-11T08:33:22;100473.88;;;30.81;100.00
71004;BME280;59025;42.050;-8.660;2022-08-11T08:35:57;100475.16;;;31.11;100.00
71004;BME280;59025;42.050;-8.660;2022-08-11T08:38:47;100473.28;;;31.67;100.00
71004;BME280;59025;42.050;-8.660;2022-08-11T08:41:22;100469.66;;;31.87;100.00
71004;BME280;59025;42.050;-8.660;2022-08-11T08:43:56;100473.78;;;31.84;100.00
71004;BME280;59025;42.050;-8.660;2022-08-11T08:46:28;100467.94;;;32.10;100.00
71004;BME280;59025;42.050;-8.660;2022-08-11T08:48:59;100470.94;;;32.24;100.00
71004;BME280;59025;42.050;-8.660;2022-08-11T08:51:28;100460.38;;;32.27;100.00
71004;BME280;59025;42.050;-8.660;2022-08-11T08:54:04;100464.84;;;32.23;100.00
71004;BME280;59025;42.050;-8.660;2022-08-11T08:56:34;100457.13;;;32.34;100.00
71004;BME280;59025;42.050;-8.660;2022-08-11T08:59:04;100464.31;;;32.49;100.00
71004;BME280;59025;42.050;-8.660;2022-08-11T09:01:35;100461.59;;;32.99;100.00
71004;BME280;59025;42.050;-8.660;2022-08-11T09:04:07;100456.91;;;33.11;100.00
71004;BME280;59025;42.050;-8.660;2022-08-11T09:06:36;100462.44;;;33.03;100.00
71004;BME280;59025;42.050;-8.660;2022-08-11T09:09:07;100462.66;;;32.94;100.00
71004;BME280;59025;42.050;-8.660;2022-08-11T09:11:39;100458.59;;;33.00;100.00
71004;BME280;59025;42.050;-8.660;2022-08-11T09:14:19;100462.41;;;33.37;100.00
71004;BME280;59025;42.050;-8.660;2022-08-11T09:16:47;100463.53;;;33.36;100.00
71004;BME280;59025;42.050;-8.660;2022-08-11T09:19:18;100463.09;;;33.15;100.00
71004;BME280;59025;42.050;-8.660;2022-08-11T09:21:48;100467.16;;;33.09;100.00
71004;BME280;59025;42.050;-8.660;2022-08-11T09:24:38;100476.28;;;33.46;100.00
71004;BME280;59025;42.050;-8.660;2022-08-11T09:27:25;100472.44;;;33.44;100.00
71004;BME280;59025;42.050;-8.660;2022-08-11T09:29:53;100469.66;;;34.01;100.00
71004;BME280;59025;42.050;-8.660;2022-08-11T09:32:22;100471.91;;;34.21;100.00
71004;BME280;59025;42.050;-8.660;2022-08-11T09:34:50;100472.56;;;34.37;100.00
71004;BME280;59025;42.050;-8.660;2022-08-11T09:37:20;100471.72;;;34.11;100.00
71004;BME280;59025;42.050;-8.660;2022-08-11T09:40:07;100468.63;;;34.31;100.00
71004;BME280;59025;42.050;-8.660;2022-08-11T09:42:54;100469.41;;;34.32;100.00
71004;BME280;59025;42.050;-8.660;2022-08-11T09:45:39;100471.50;;;34.23;100.00
71004;BME280;59025;42.050;-8.660;2022-08-11T09:48:07;100462.94;;;33.88;100.00
71004;BME280;59025;42.050;-8.660;2022-08-11T09:50:35;100474.28;;;33.62;100.00
71004;BME280;59025;42.050;-8.660;2022-08-11T09:53:04;100474.41;;;33.88;100.00
71004;BME280;59025;42.050;-8.660;2022-08-11T09:55:32;100478.22;;;33.87;100.00
71004;BME280;59025;42.050;-8.660;2022-08-11T09:58:02;100475.72;;;34.20;100.00
71004;BME280;59025;42.050;-8.660;2022-08-11T10:00:42;100471.34;;;34.61;100.00
71004;BME280;59025;42.050;-8.660;2022-08-11T10:03:11;100466.41;;;34.89;100.00
71004;BME280;59025;42.050;-8.660;2022-08-11T10:05:44;100472.53;;;34.89;100.00
71004;BME280;59025;42.050;-8.660;2022-08-11T10:08:30;100466.44;;;34.92;100.00
71004;BME280;59025;42.050;-8.660;2022-08-11T10:10:59;100467.16;;;34.86;100.00
71004;BME280;59025;42.050;-8.660;2022-08-11T10:13:34;100464.97;;;34.69;100.00
71004;BME280;59025;42.050;-8.660;2022-08-11T10:16:34;100467.28;;;34.70;100.00
71004;BME280;59025;42.050;-8.660;2022-08-11T10:19:05;100463.66;;;34.82;100.00
71004;BME280;59025;42.050;-8.660;2022-08-11T10:21:38;100471.16;;;35.02;100.00
71004;BME280;59025;42.050;-8.660;2022-08-11T10:24:07;100474.34;;;35.11;100.00
71004;BME280;59025;42.050;-8.660;2022-08-11T10:26:53;100464.09;;;34.87;100.00
71004;BME280;59025;42.050;-8.660;2022-08-11T10:29:32;100467.72;;;35.02;100.00
71004;BME280;59025;42.050;-8.660;2022-08-11T10:32:21;100461.91;;;34.96;100.00
71004;BME280;59025;42.050;-8.660;2022-08-11T10:35:07;100463.31;;;35.16;100.00
71004;BME280;59025;42.050;-8.660;2022-08-11T10:37:37;100468.97;;;35.11;100.00
71004;BME280;59025;42.050;-8.660;2022-08-11T10:40:13;100470.44;;;35.05;100.00
71004;BME280;59025;42.050;-8.660;2022-08-11T10:42:43;100472.56;;;35.22;100.00
71004;BME280;59025;42.050;-8.660;2022-08-11T10:45:34;100475.84;;;35.09;100.00
71004;BME280;59025;42.050;-8.660;2022-08-11T10:48:20;100474.00;;;34.83;100.00
71004;BME280;59025;42.050;-8.660;2022-08-11T10:50:50;100480.06;;;34.54;100.00
71004;BME280;59025;42.050;-8.660;2022-08-11T10:53:35;100474.66;;;34.77;100.00
71004;BME280;59025;42.050;-8.660;2022-08-11T10:56:21;100467.97;;;34.64;100.00
71004;BME280;59025;42.050;-8.660;2022-08-11T10:59:07;100460.47;;;35.02;100.00
71004;BME280;59025;42.050;-8.660;2022-08-11T11:01:38;100470.88;;;34.81;100.00
71004;BME280;59025;42.050;-8.660;2022-08-11T11:04:11;100465.66;;;34.88;100.00
71004;BME280;59025;42.050;-8.660;2022-08-11T11:06:49;100468.44;;;34.99;100.00
71004;BME280;59025;42.050;-8.660;2022-08-11T11:09:20;100468.31;;;34.88;100.00
71004;BME280;59025;42.050;-8.660;2022-08-11T11:11:52;100467.53;;;34.62;100.00
71004;BME280;59025;42.050;-8.660;2022-08-11T11:14:40;100464.78;;;34.81;100.00
71004;BME280;59025;42.050;-8.660;2022-08-11T11:17:29;100462.88;;;34.81;100.00
71004;BME280;59025;42.050;-8.660;2022-08-11T11:20:18;100457.16;;;34.83;100.00
71004;BME280;59025;42.050;-8.660;2022-08-11T11:22:50;100453.41;;;35.20;100.00
71004;BME280;59025;42.050;-8.660;2022-08-11T11:25:33;100453.81;;;35.55;100.00
71004;BME280;59025;42.050;-8.660;2022-08-11T11:28:27;100457.03;;;35.02;100.00
71004;BME280;59025;42.050;-8.660;2022-08-11T11:31:11;100448.78;;;34.84;100.00
71004;BME280;59025;42.050;-8.660;2022-08-11T11:33:56;100449.69;;;34.69;100.00
71004;BME280;59025;42.050;-8.660;2022-08-11T11:36:30;100455.66;;;34.85;100.00
71004;BME280;59025;42.050;-8.660;2022-08-11T11:39:05;100450.78;;;34.65;100.00
71004;BME280;59025;42.050;-8.660;2022-08-11T11:41:32;100456.97;;;34.69;100.00
71004;BME280;59025;42.050;-8.660;2022-08-11T11:44:01;100458.47;;;34.66;100.00
71004;BME280;59025;42.050;-8.660;2022-08-11T11:46:29;100454.78;;;34.48;100.00
71004;BME280;59025;42.050;-8.660;2022-08-11T11:49:00;100456.53;;;34.15;100.00
71004;BME280;59025;42.050;-8.660;2022-08-11T11:51:32;100450.19;;;33.78;100.00
71004;BME280;59025;42.050;-8.660;2022-08-11T11:54:00;100454.47;;;33.63;100.00
71004;BME280;59025;42.050;-8.660;2022-08-11T11:56:30;100459.03;;;33.82;100.00
71004;BME280;59025;42.050;-8.660;2022-08-11T11:58:58;100462.72;;;33.55;100.00
71004;BME280;59025;42.050;-8.660;2022-08-11T12:01:43;100461.56;;;33.14;100.00
71004;BME280;59025;42.050;-8.660;2022-08-11T12:04:14;100457.31;;;32.94;100.00
71004;BME280;59025;42.050;-8.660;2022-08-11T12:06:43;100467.66;;;32.77;100.00
71004;BME280;59025;42.050;-8.660;2022-08-11T12:09:12;100464.09;;;32.73;100.00
71004;BME280;59025;42.050;-8.660;2022-08-11T12:11:45;100460.78;;;32.95;100.00
71004;BME280;59025;42.050;-8.660;2022-08-11T12:14:44;100466.59;;;32.81;100.00
71004;BME280;59025;42.050;-8.660;2022-08-11T12:17:12;100456.78;;;32.85;100.00
71004;BME280;59025;42.050;-8.660;2022-08-11T12:19:41;100454.81;;;32.67;100.00
71004;BME280;59025;42.050;-8.660;2022-08-11T12:22:09;100457.63;;;32.08;100.00
71004;BME280;59025;42.050;-8.660;2022-08-11T12:24:54;100461.06;;;31.78;100.00
71004;BME280;59025;42.050;-8.660;2022-08-11T12:27:40;100470.69;;;31.55;100.00
71004;BME280;59025;42.050;-8.660;2022-08-11T12:30:08;100472.66;;;31.58;100.00
71004;BME280;59025;42.050;-8.660;2022-08-11T12:32:37;100469.41;;;31.64;100.00
71004;BME280;59025;42.050;-8.660;2022-08-11T12:35:07;100470.94;;;31.65;100.00
71004;BME280;59025;42.050;-8.660;2022-08-11T12:37:39;100474.41;;;31.38;100.00
71004;BME280;59025;42.050;-8.660;2022-08-11T12:40:10;100480.84;;;31.37;100.00
71004;BME280;59025;42.050;-8.660;2022-08-11T12:42:57;100475.06;;;31.20;100.00
71004;BME280;59025;42.050;-8.660;2022-08-11T12:45:51;100475.56;;;31.25;100.00
71004;BME280;59025;42.050;-8.660;2022-08-11T12:48:26;100475.00;;;31.32;100.00
71004;BME280;59025;42.050;-8.660;2022-08-11T12:51:19;100474.09;;;31.00;100.00
71004;BME280;59025;42.050;-8.660;2022-08-11T12:54:09;100468.44;;;30.90;100.00
71004;BME280;59025;42.050;-8.660;2022-08-11T12:56:40;100472.19;;;31.01;100.00
71004;BME280;59025;42.050;-8.660;2022-08-11T12:59:26;100474.19;;;31.04;100.00
71004;BME280;59025;42.050;-8.660;2022-08-11T13:02:15;100466.16;;;30.88;100.00
71004;BME280;59025;42.050;-8.660;2022-08-11T13:05:00;100475.03;;;30.68;100.00
71004;BME280;59025;42.050;-8.660;2022-08-11T13:07:31;100472.69;;;30.55;100.00
71004;BME280;59025;42.050;-8.660;2022-08-11T13:10:00;100475.66;;;30.41;100.00
71004;BME280;59025;42.050;-8.660;2022-08-11T13:12:31;100475.47;;;30.34;100.00
71004;BME280;59025;42.050;-8.660;2022-08-11T13:15:15;100478.44;;;30.33;100.00
71004;BME280;59025;42.050;-8.660;2022-08-11T13:17:44;100483.31;;;30.31;100.00
71004;BME280;59025;42.050;-8.660;2022-08-11T13:20:16;100478.31;;;30.41;100.00
71004;BME280;59025;42.050;-8.660;2022-08-11T13:22:47;100473.69;;;30.38;100.00
71004;BME280;59025;42.050;-8.660;2022-08-11T13:25:17;100473.13;;;30.21;100.00
71004;BME280;59025;42.050;-8.660;2022-08-11T13:27:46;100473.13;;;30.33;100.00
71004;BME280;59025;42.050;-8.660;2022-08-11T13:30:15;100480.13;;;30.49;100.00
71004;BME280;59025;42.050;-8.660;2022-08-11T13:33:00;100482.00;;;30.37;100.00
71004;BME280;59025;42.050;-8.660;2022-08-11T13:35:29;100491.38;;;30.10;100.00
71004;BME280;59025;42.050;-8.660;2022-08-11T13:38:01;100482.09;;;30.16;100.00
71004;BME280;59025;42.050;-8.660;2022-08-11T13:40:30;100480.31;;;30.20;100.00
71004;BME280;59025;42.050;-8.660;2022-08-11T13:43:02;100485.28;;;30.34;100.00
71004;BME280;59025;42.050;-8.660;2022-08-11T13:45:30;100486.19;;;30.50;100.00
71004;BME280;59025;42.050;-8.660;2022-08-11T13:47:57;100479.53;;;30.56;100.00
71004;BME280;59025;42.050;-8.660;2022-08-11T13:50:26;100483.66;;;30.77;100.00
71004;BME280;59025;42.050;-8.660;2022-08-11T13:53:10;100483.50;;;30.62;100.00
71004;BME280;59025;42.050;-8.660;2022-08-11T13:55:38;100486.75;;;30.55;100.00
71004;BME280;59025;42.050;-8.660;2022-08-11T13:58:08;100479.00;;;30.50;100.00
71004;BME280;59025;42.050;-8.660;2022-08-11T14:00:36;100476.13;;;30.43;100.00
71004;BME280;59025;42.050;-8.660;2022-08-11T14:03:06;100476.34;;;30.38;100.00
71004;BME280;59025;42.050;-8.660;2022-08-11T14:05:39;100475.66;;;30.41;100.00
71004;BME280;59025;42.050;-8.660;2022-08-11T14:08:13;100478.09;;;30.46;100.00
71004;BME280;59025;42.050;-8.660;2022-08-11T14:10:44;100483.31;;;30.43;100.00
71004;BME280;59025;42.050;-8.660;2022-08-11T14:13:36;100473.78;;;30.54;100.00
71004;BME280;59025;42.050;-8.660;2022-08-11T14:16:07;100469.25;;;30.42;100.00
71004;BME280;59025;42.050;-8.660;2022-08-11T14:18:42;100473.13;;;30.33;100.00
71004;BME280;59025;42.050;-8.660;2022-08-11T14:21:13;100466.81;;;30.25;100.00
71004;BME280;59025;42.050;-8.660;2022-08-11T14:24:00;100462.47;;;30.09;100.00
71004;BME280;59025;42.050;-8.660;2022-08-11T14:26:29;100470.22;;;30.02;100.00
71004;BME280;59025;42.050;-8.660;2022-08-11T14:29:06;100463.88;;;29.94;100.00
71004;BME280;59025;42.050;-8.660;2022-08-11T14:31:38;100465.53;;;29.99;100.00
71004;BME280;59025;42.050;-8.660;2022-08-11T14:34:08;100456.25;;;30.05;100.00
71004;BME280;59025;42.050;-8.660;2022-08-11T14:36:39;100459.53;;;30.10;100.00
71004;BME280;59025;42.050;-8.660;2022-08-11T14:39:10;100456.09;;;30.10;100.00
71004;BME280;59025;42.050;-8.660;2022-08-11T14:41:40;100461.78;;;30.00;100.00
71004;BME280;59025;42.050;-8.660;2022-08-11T14:44:26;100468.28;;;29.90;100.00
71004;BME280;59025;42.050;-8.660;2022-08-11T14:47:11;100466.94;;;29.72;100.00
71004;BME280;59025;42.050;-8.660;2022-08-11T14:49:40;100463.78;;;29.58;100.00
71004;BME280;59025;42.050;-8.660;2022-08-11T14:52:10;100469.81;;;29.47;100.00
71004;BME280;59025;42.050;-8.660;2022-08-11T14:54:42;100470.13;;;29.45;100.00
71004;BME280;59025;42.050;-8.660;2022-08-11T14:57:29;100463.25;;;29.12;100.00
71004;BME280;59025;42.050;-8.660;2022-08-11T14:59:59;100474.09;;;29.19;100.00
71004;BME280;59025;42.050;-8.660;2022-08-11T15:02:28;100474.78;;;29.28;100.00
71004;BME280;59025;42.050;-8.660;2022-08-11T15:05:14;100463.34;;;29.36;100.00
71004;BME280;59025;42.050;-8.660;2022-08-11T15:07:42;100466.91;;;29.19;100.00
71004;BME280;59025;42.050;-8.660;2022-08-11T15:10:16;100471.63;;;28.93;100.00
71004;BME280;59025;42.050;-8.660;2022-08-11T15:12:45;100474.38;;;29.05;100.00
71004;BME280;59025;42.050;-8.660;2022-08-11T15:15:14;100479.22;;;29.03;100.00
71004;BME280;59025;42.050;-8.660;2022-08-11T15:18:02;100469.00;;;28.64;100.00
71004;BME280;59025;42.050;-8.660;2022-08-11T15:20:31;100469.25;;;28.71;100.00
71004;BME280;59025;42.050;-8.660;2022-08-11T15:23:17;100483.25;;;28.80;100.00
71004;BME280;59025;42.050;-8.660;2022-08-11T15:26:06;100486.78;;;28.84;100.00
71004;BME280;59025;42.050;-8.660;2022-08-11T15:28:38;100482.44;;;28.80;100.00
71004;BME280;59025;42.050;-8.660;2022-08-11T15:31:26;100486.66;;;28.81;100.00
71004;BME280;59025;42.050;-8.660;2022-08-11T15:34:14;100484.78;;;28.81;100.00
71004;BME280;59025;42.050;-8.660;2022-08-11T15:37:02;100488.81;;;28.87;100.00
71004;BME280;59025;42.050;-8.660;2022-08-11T15:39:50;100474.72;;;28.95;100.00
71004;BME280;59025;42.050;-8.660;2022-08-11T15:42:47;100486.91;;;28.88;100.00
71004;BME280;59025;42.050;-8.660;2022-08-11T15:45:39;100490.66;;;28.87;100.00
71004;BME280;59025;42.050;-8.660;2022-08-11T15:48:20;100479.38;;;28.78;100.00
71004;BME280;59025;42.050;-8.660;2022-08-11T15:51:03;100488.81;;;28.87;100.00
71004;BME280;59025;42.050;-8.660;2022-08-11T15:53:40;100488.47;;;28.97;100.00
71004;BME280;59025;42.050;-8.660;2022-08-11T15:56:09;100478.34;;;28.91;100.00
71004;BME280;59025;42.050;-8.660;2022-08-11T15:58:42;100475.88;;;28.86;100.00
71004;BME280;59025;42.050;-8.660;2022-08-11T16:01:27;100465.34;;;28.77;100.00
71004;BME280;59025;42.050;-8.660;2022-08-11T16:04:17;100481.78;;;28.62;100.00
71004;BME280;59025;42.050;-8.660;2022-08-11T16:06:54;100461.16;;;28.47;100.00
71004;BME280;59025;42.050;-8.660;2022-08-11T16:09:27;100460.25;;;28.35;100.00
71004;BME280;59025;42.050;-8.660;2022-08-11T16:11:59;100463.06;;;28.38;100.00
71004;BME280;59025;42.050;-8.660;2022-08-11T16:14:32;100463.84;;;28.30;100.00
71004;BME280;59025;42.050;-8.660;2022-08-11T16:17:18;100480.19;;;28.32;100.00
71004;BME280;59025;42.050;-8.660;2022-08-11T16:19:49;100483.28;;;28.34;100.00
71004;BME280;59025;42.050;-8.660;2022-08-11T16:22:22;100487.84;;;28.25;100.00
71004;BME280;59025;42.050;-8.660;2022-08-11T16:24:57;100480.50;;;28.31;100.00
71004;BME280;59025;42.050;-8.660;2022-08-11T16:27:26;100484.50;;;28.37;100.00
71004;BME280;59025;42.050;-8.660;2022-08-11T16:29:56;100482.81;;;28.32;100.00
71004;BME280;59025;42.050;-8.660;2022-08-11T16:32:24;100485.38;;;28.20;100.00
71004;BME280;59025;42.050;-8.660;2022-08-11T16:34:55;100485.38;;;28.20;100.00
71004;BME280;59025;42.050;-8.660;2022-08-11T16:37:42;100492.38;;;28.16;100.00
71004;BME280;59025;42.050;-8.660;2022-08-11T16:40:28;100486.66;;;28.06;100.00
71004;BME280;59025;42.050;-8.660;2022-08-11T16:42:57;100485.28;;;28.00;100.00
71004;BME280;59025;42.050;-8.660;2022-08-11T16:45:45;100487.91;;;28.08;100.00
71004;BME280;59025;42.050;-8.660;2022-08-11T16:48:33;100490.06;;;28.06;100.00
71004;BME280;59025;42.050;-8.660;2022-08-11T16:51:02;100498.22;;;27.93;100.00
71004;BME280;59025;42.050;-8.660;2022-08-11T16:53:29;100499.28;;;27.75;100.00
71004;BME280;59025;42.050;-8.660;2022-08-11T16:55:59;100497.47;;;27.84;100.00
71004;BME280;59025;42.050;-8.660;2022-08-11T16:58:29;100493.69;;;27.76;100.00
71004;BME280;59025;42.050;-8.660;2022-08-11T17:01:19;100498.53;;;27.74;100.00
71004;BME280;59025;42.050;-8.660;2022-08-11T17:03:51;100499.16;;;27.63;100.00
71004;BME280;59025;42.050;-8.660;2022-08-11T17:06:41;100500.28;;;27.45;100.00
71004;BME280;59025;42.050;-8.660;2022-08-11T17:09:31;100503.06;;;27.40;100.00
71004;BME280;59025;42.050;-8.660;2022-08-11T17:12:19;100497.63;;;27.36;100.00
71004;BME280;59025;42.050;-8.660;2022-08-11T17:15:09;100494.34;;;27.39;100.00
71004;BME280;59025;42.050;-8.660;2022-08-11T17:17:59;100498.84;;;27.13;100.00
71004;BME280;59025;42.050;-8.660;2022-08-11T17:20:29;100496.78;;;27.10;100.00
71004;BME280;59025;42.050;-8.660;2022-08-11T17:22:59;100500.34;;;26.97;100.00
71004;BME280;59025;42.050;-8.660;2022-08-11T17:25:46;100494.47;;;27.00;100.00
71004;BME280;59025;42.050;-8.660;2022-08-11T17:28:17;100490.25;;;26.99;100.00
71004;BME280;59025;42.050;-8.660;2022-08-11T17:30:48;100486.34;;;26.88;100.00
71004;BME280;59025;42.050;-8.660;2022-08-11T17:33:35;100499.09;;;26.86;100.00
71004;BME280;59025;42.050;-8.660;2022-08-11T17:36:21;100496.72;;;26.76;100.00
71004;BME280;59025;42.050;-8.660;2022-08-11T17:38:50;100501.09;;;26.72;100.00
71004;BME280;59025;42.050;-8.660;2022-08-11T17:41:20;100502.91;;;26.63;100.00
71004;BME280;59025;42.050;-8.660;2022-08-11T17:44:05;100498.25;;;26.60;100.00
71004;BME280;59025;42.050;-8.660;2022-08-11T17:46:51;100502.69;;;26.51;100.00
71004;BME280;59025;42.050;-8.660;2022-08-11T17:49:38;100507.47;;;26.49;100.00
71004;BME280;59025;42.050;-8.660;2022-08-11T17:52:06;100507.03;;;26.47;100.00
71004;BME280;59025;42.050;-8.660;2022-08-11T17:54:54;100505.72;;;26.36;100.00
71004;BME280;59025;42.050;-8.660;2022-08-11T17:57:40;100495.94;;;26.28;100.00
71004;BME280;59025;42.050;-8.660;2022-08-11T18:00:26;100492.34;;;26.24;100.00
71004;BME280;59025;42.050;-8.660;2022-08-11T18:02:58;100488.75;;;26.20;100.00
71004;BME280;59025;42.050;-8.660;2022-08-11T18:05:45;100492.59;;;26.14;100.00
71004;BME280;59025;42.050;-8.660;2022-08-11T18:08:15;100494.09;;;26.07;100.00
71004;BME280;59025;42.050;-8.660;2022-08-11T18:11:02;100494.44;;;26.05;100.00
71004;BME280;59025;42.050;-8.660;2022-08-11T18:13:48;100493.47;;;26.01;100.00
71004;BME280;59025;42.050;-8.660;2022-08-11T18:16:34;100507.38;;;25.93;100.00
71004;BME280;59025;42.050;-8.660;2022-08-11T18:19:19;100498.97;;;25.91;100.00
71004;BME280;59025;42.050;-8.660;2022-08-11T18:22:08;100504.47;;;25.81;100.00
71004;BME280;59025;42.050;-8.660;2022-08-11T18:24:56;100500.56;;;25.79;100.00
71004;BME280;59025;42.050;-8.660;2022-08-11T18:27:44;100499.91;;;25.73;100.00
71004;BME280;59025;42.050;-8.660;2022-08-11T18:30:32;100506.16;;;25.77;100.00
71004;BME280;59025;42.050;-8.660;2022-08-11T18:33:21;100505.66;;;25.75;100.00
71004;BME280;59025;42.050;-8.660;2022-08-11T18:36:10;100505.50;;;25.72;100.00
71004;BME280;59025;42.050;-8.660;2022-08-11T18:38:58;100514.25;;;25.59;100.00
71004;BME280;59025;42.050;-8.660;2022-08-11T18:41:45;100508.59;;;25.52;100.00
71004;BME280;59025;42.050;-8.660;2022-08-11T18:44:32;100511.66;;;25.45;100.00
71004;BME280;59025;42.050;-8.660;2022-08-11T18:47:19;100522.47;;;25.44;100.00
71004;BME280;59025;42.050;-8.660;2022-08-11T18:50:07;100536.47;;;25.31;100.00
71004;BME280;59025;42.050;-8.660;2022-08-11T18:52:53;100533.16;;;25.25;100.00
71004;BME280;59025;42.050;-8.660;2022-08-11T18:55:42;100541.16;;;25.20;100.00
71004;BME280;59025;42.050;-8.660;2022-08-11T18:58:29;100541.06;;;25.12;100.00
71004;BME280;59025;42.050;-8.660;2022-08-11T19:01:16;100549.28;;;24.97;100.00
71004;BME280;59025;42.050;-8.660;2022-08-11T19:04:04;100552.28;;;24.90;100.00
71004;BME280;59025;42.050;-8.660;2022-08-11T19:06:52;100548.00;;;24.81;100.00
71004;BME280;59025;42.050;-8.660;2022-08-11T19:09:40;100554.81;;;24.68;100.00